createdAt,value
2019-05-03T00:02:25.394Z,14.18
2019-05-03T00:05:04.163Z,16.62
2019-05-03T00:07:35.125Z,18.37
2019-05-03T00:10:09.725Z,23.55
2019-05-03T00:12:42.183Z,20.57
2019-05-03T00:15:22.045Z,15.60
2019-05-03T00:17:55.302Z,17.70
2019-05-03T00:20:29.302Z,14.60
2019-05-03T00:23:02.918Z,14.90
2019-05-03T00:25:35.557Z,15.43
2019-05-03T00:28:08.005Z,18.27
2019-05-03T00:30:42.583Z,20.77
2019-05-03T00:33:13.786Z,28.05
2019-05-03T00:35:52.192Z,30.12
2019-05-03T00:38:23.832Z,36.15
2019-05-03T00:40:56.303Z,29.23
2019-05-03T00:46:03.134Z,24.32
2019-05-03T00:48:36.080Z,29.00
2019-05-03T00:51:07.827Z,32.70
2019-05-03T00:53:39.286Z,33.18
2019-05-03T00:56:12.364Z,34.18
2019-05-03T00:58:53.014Z,34.38
2019-05-03T01:01:23.487Z,27.77
2019-05-03T01:03:54.531Z,26.93
2019-05-03T01:06:26.798Z,27.73
2019-05-03T01:08:58.938Z,33.60
2019-05-03T01:14:04.910Z,29.45
2019-05-03T01:16:37.392Z,25.43
2019-05-03T01:19:12.080Z,28.50
2019-05-03T01:21:44.178Z,26.87
2019-05-03T01:24:18.240Z,23.65
2019-05-03T01:26:50.005Z,22.77
2019-05-03T01:29:26.183Z,32.98
2019-05-03T01:31:57.752Z,33.35
2019-05-03T01:34:32.636Z,29.98
2019-05-03T01:37:03.314Z,31.90
2019-05-03T01:39:34.861Z,19.02
2019-05-03T01:42:07.900Z,17.62
2019-05-03T01:44:43.462Z,18.70
2019-05-03T01:47:21.903Z,16.40
2019-05-03T01:49:59.511Z,15.63
2019-05-03T01:52:35.339Z,16.37
2019-05-03T01:55:07.770Z,21.15
2019-05-03T01:57:41.838Z,20.55
2019-05-03T02:00:14.666Z,22.20
2019-05-03T02:02:48.217Z,26.50
2019-05-03T02:05:43.128Z,22.95
2019-05-03T02:08:15.389Z,23.07
2019-05-03T02:10:48.063Z,25.88
2019-05-03T02:13:20.644Z,30.40
2019-05-03T02:15:52.744Z,36.33
2019-05-03T02:18:23.670Z,34.90
2019-05-03T02:20:55.285Z,33.60
2019-05-03T02:23:28.160Z,38.83
2019-05-03T02:25:59.632Z,27.35
2019-05-03T02:28:32.693Z,25.68
2019-05-03T02:31:05.389Z,27.70
2019-05-03T02:33:37.145Z,22.65
2019-05-03T02:36:08.039Z,24.27
2019-05-03T02:38:42.979Z,22.20
2019-05-03T02:41:14.596Z,23.07
2019-05-03T02:43:47.681Z,23.02
2019-05-03T02:46:25.385Z,25.82
2019-05-03T02:48:58.947Z,25.45
2019-05-03T02:51:35.824Z,22.10
2019-05-03T02:54:06.451Z,24.00
2019-05-03T02:56:37.901Z,20.45
2019-05-03T02:59:11.091Z,21.57
2019-05-03T03:01:46.464Z,27.73
2019-05-03T03:04:19.485Z,20.48
2019-05-03T03:06:55.654Z,23.50
2019-05-03T03:09:28.506Z,20.57
2019-05-03T03:11:59.828Z,23.83
2019-05-03T03:14:32.789Z,21.57
2019-05-03T03:17:06.722Z,18.87
2019-05-03T03:19:39.801Z,22.13
2019-05-03T03:22:11.817Z,23.25
2019-05-03T03:24:45.831Z,23.85
2019-05-03T03:27:21.330Z,26.60
2019-05-03T03:29:56.995Z,26.70
2019-05-03T03:32:31.271Z,26.40
2019-05-03T03:35:12.741Z,23.62
2019-05-03T03:37:45.989Z,26.48
2019-05-03T03:40:18.201Z,26.42
2019-05-03T03:42:55.834Z,28.87
2019-05-03T03:45:29.461Z,23.77
2019-05-03T03:48:02.109Z,24.87
2019-05-03T03:50:35.913Z,17.32
2019-05-03T03:53:10.848Z,25.65
2019-05-03T03:55:45.827Z,24.95
2019-05-03T03:58:22.922Z,28.35
2019-05-03T04:00:55.461Z,28.55
2019-05-03T04:03:28.079Z,27.07
2019-05-03T04:05:59.258Z,27.52
2019-05-03T04:08:30.980Z,24.80
2019-05-03T04:11:03.025Z,23.92
2019-05-03T04:13:37.804Z,23.47
2019-05-03T04:16:26.104Z,25.70
2019-05-03T04:19:06.818Z,28.65
2019-05-03T04:21:48.274Z,20.35
2019-05-03T04:24:22.645Z,23.25
2019-05-03T04:27:18.426Z,22.02
2019-05-03T04:29:39.925Z,24.57
2019-05-03T04:32:15.764Z,25.15
2019-05-03T04:34:48.682Z,27.22
2019-05-03T04:37:19.513Z,23.98
2019-05-03T04:39:51.928Z,24.65
2019-05-03T04:42:25.378Z,24.18
2019-05-03T04:44:56.358Z,26.25
2019-05-03T04:47:29.992Z,22.25
2019-05-03T04:50:01.658Z,24.02
2019-05-03T04:52:36.183Z,20.95
2019-05-03T04:57:44.950Z,22.30
2019-05-03T05:00:12.807Z,21.10
2019-05-03T05:02:46.157Z,27.25
2019-05-03T05:05:18.636Z,24.30
2019-05-03T05:08:00.731Z,21.48
2019-05-03T05:10:36.004Z,24.98
2019-05-03T05:15:39.595Z,22.00
2019-05-03T05:18:29.267Z,19.17
2019-05-03T05:21:04.564Z,24.45
2019-05-03T05:23:35.639Z,20.97
2019-05-03T05:26:09.282Z,23.77
2019-05-03T05:28:45.089Z,22.07
2019-05-03T05:31:16.932Z,30.75
2019-05-03T05:33:48.193Z,26.17
2019-05-03T05:36:19.165Z,23.38
2019-05-03T05:38:49.966Z,23.12
2019-05-03T05:41:21.644Z,29.50
2019-05-03T05:43:52.479Z,28.32
2019-05-03T05:46:28.000Z,22.62
2019-05-03T05:49:00.050Z,26.40
2019-05-03T05:51:32.241Z,27.48
2019-05-03T05:54:02.853Z,25.68
2019-05-03T05:56:37.380Z,26.80
2019-05-03T05:59:16.831Z,24.05
2019-05-03T06:02:00.048Z,29.32
2019-05-03T06:04:31.299Z,22.85
2019-05-03T06:07:09.903Z,26.48
2019-05-03T06:09:46.371Z,28.90
2019-05-03T06:12:25.500Z,26.23
2019-05-03T06:15:00.335Z,26.10
2019-05-03T06:17:48.365Z,31.13
2019-05-03T06:20:25.866Z,27.93
2019-05-03T06:23:05.221Z,32.00
2019-05-03T06:25:37.954Z,29.57
2019-05-03T06:28:18.257Z,27.13
2019-05-03T06:30:56.431Z,36.63
2019-05-03T06:33:27.776Z,22.90
2019-05-03T06:35:59.817Z,29.18
2019-05-03T06:38:34.426Z,42.05
2019-05-03T06:41:05.838Z,26.93
2019-05-03T06:43:44.065Z,25.40
2019-05-03T06:46:12.294Z,26.65
2019-05-03T06:48:46.620Z,27.30
2019-05-03T06:51:20.287Z,24.07
2019-05-03T06:53:51.458Z,23.25
2019-05-03T06:56:29.098Z,18.25
2019-05-03T06:58:59.067Z,26.65
2019-05-03T07:01:34.498Z,23.07
2019-05-03T07:04:15.127Z,25.77
2019-05-03T07:07:05.264Z,32.90
2019-05-03T07:09:44.707Z,38.78
2019-05-03T07:12:16.859Z,38.10
2019-05-03T07:14:50.501Z,34.13
2019-05-03T07:17:24.826Z,29.30
2019-05-03T07:19:56.329Z,24.20
2019-05-03T07:22:27.676Z,23.35
2019-05-03T07:25:00.048Z,27.48
2019-05-03T07:27:31.499Z,29.80
2019-05-03T07:30:04.930Z,29.82
2019-05-03T07:35:09.156Z,27.02
2019-05-03T07:37:40.981Z,30.37
2019-05-03T07:40:14.925Z,29.30
2019-05-03T07:42:46.953Z,33.38
2019-05-03T07:45:19.734Z,23.60
2019-05-03T07:47:52.896Z,19.23
2019-05-03T07:50:26.053Z,22.65
2019-05-03T07:52:57.172Z,26.37
2019-05-03T07:55:30.963Z,24.77
2019-05-03T07:58:07.479Z,29.65
2019-05-03T08:00:39.749Z,29.02
2019-05-03T08:03:12.222Z,31.52
2019-05-03T08:05:45.430Z,27.50
2019-05-03T08:08:18.241Z,28.73
2019-05-03T08:10:49.771Z,30.85
2019-05-03T08:13:21.738Z,22.98
2019-05-03T08:15:52.384Z,29.67
2019-05-03T08:18:25.939Z,26.85
2019-05-03T08:20:56.615Z,23.22
2019-05-03T08:23:30.534Z,31.70
2019-05-03T08:26:02.996Z,23.40
2019-05-03T08:28:35.066Z,28.65
2019-05-03T08:31:24.053Z,23.32
2019-05-03T08:34:15.144Z,26.62
2019-05-03T08:36:56.812Z,24.23
2019-05-03T08:39:28.015Z,28.52
2019-05-03T08:42:04.804Z,24.95
2019-05-03T08:44:37.205Z,28.35
2019-05-03T08:47:09.065Z,28.73
2019-05-03T08:49:44.878Z,27.48
2019-05-03T08:52:17.142Z,26.33
2019-05-03T08:57:22.499Z,20.72
2019-05-03T08:59:55.076Z,24.10
2019-05-03T09:02:27.181Z,23.93
2019-05-03T09:05:00.569Z,21.23
2019-05-03T09:07:35.507Z,28.23
2019-05-03T09:10:12.617Z,26.73
2019-05-03T09:13:03.449Z,32.55
2019-05-03T09:15:36.618Z,29.50
2019-05-03T09:18:07.762Z,39.18
2019-05-03T09:20:39.443Z,25.45
2019-05-03T09:23:14.897Z,31.20
2019-05-03T09:25:48.189Z,34.35
2019-05-03T09:28:21.164Z,30.92
2019-05-03T09:30:52.664Z,32.33
2019-05-03T09:33:24.971Z,25.62
2019-05-03T09:35:56.923Z,25.80
2019-05-03T09:38:31.367Z,26.17
2019-05-03T09:41:11.034Z,24.07
2019-05-03T09:43:41.681Z,18.67
2019-05-03T09:46:14.699Z,21.33
2019-05-03T09:48:46.415Z,19.42
2019-05-03T09:51:20.754Z,20.37
2019-05-03T09:53:56.090Z,17.73
2019-05-03T09:56:55.289Z,23.92
2019-05-03T09:59:21.179Z,19.92
2019-05-03T10:01:58.411Z,19.98
2019-05-03T10:04:30.342Z,21.85
2019-05-03T10:07:02.001Z,23.45
2019-05-03T10:09:35.359Z,23.10
2019-05-03T10:12:16.144Z,18.12
2019-05-03T10:14:49.237Z,22.50
2019-05-03T10:17:28.625Z,26.95
2019-05-03T10:20:05.089Z,29.65
2019-05-03T10:22:37.199Z,23.55
2019-05-03T10:25:08.569Z,17.98
2019-05-03T10:27:52.426Z,17.20
2019-05-03T10:30:28.888Z,17.75
2019-05-03T10:33:06.733Z,14.40
2019-05-03T10:57:05.310Z,16.25
2019-05-03T10:59:36.421Z,16.95
2019-05-03T11:02:17.967Z,15.23
2019-05-03T11:08:10.501Z,12.60
2019-05-03T11:10:41.186Z,12.15
2019-05-03T11:13:16.140Z,14.58
2019-05-03T11:15:47.015Z,17.85
2019-05-03T11:18:19.590Z,16.57
2019-05-03T11:20:50.521Z,21.82
2019-05-03T11:23:25.080Z,20.43
2019-05-03T11:28:27.230Z,22.42
2019-05-03T11:31:02.471Z,23.25
2019-05-03T11:33:37.298Z,20.05
2019-05-03T11:36:12.534Z,30.37
2019-05-03T11:38:45.575Z,20.40
2019-05-03T11:41:29.531Z,15.10
2019-05-03T11:43:49.225Z,12.35
2019-05-03T11:46:20.172Z,14.13
2019-05-03T11:48:51.931Z,19.87
2019-05-03T11:51:24.514Z,14.03
2019-05-03T11:53:54.951Z,16.87
2019-05-03T11:56:26.606Z,31.17
2019-05-03T11:58:57.762Z,17.05
2019-05-03T12:01:30.206Z,11.83
2019-05-03T12:04:04.836Z,13.08
2019-05-03T12:06:36.789Z,11.30
2019-05-03T12:09:08.093Z,13.45
2019-05-03T12:11:39.967Z,10.63
2019-05-03T12:14:11.765Z,11.30
2019-05-03T12:19:24.713Z,11.18
2019-05-03T12:21:54.927Z,14.63
2019-05-03T12:24:27.103Z,19.98
2019-05-03T12:26:58.519Z,13.08
2019-05-03T12:29:29.460Z,15.63
2019-05-03T12:32:00.501Z,14.68
2019-05-03T12:34:31.300Z,12.73
2019-05-03T12:37:05.115Z,21.75
2019-05-03T12:39:36.070Z,17.73
2019-05-03T12:42:07.023Z,28.17
2019-05-03T12:44:38.914Z,19.87
2019-05-03T12:47:09.891Z,18.42
2019-05-03T12:49:40.850Z,20.17
2019-05-03T12:52:12.739Z,18.52
2019-05-03T12:54:46.101Z,18.67
2019-05-03T12:57:16.749Z,13.50
2019-05-03T12:59:49.413Z,19.00
2019-05-03T13:02:28.239Z,18.32
2019-05-03T13:04:59.099Z,16.67
2019-05-03T13:07:37.717Z,28.17
2019-05-03T13:10:10.236Z,17.67
2019-05-03T13:12:52.755Z,17.65
2019-05-03T13:15:15.732Z,20.17
2019-05-03T13:17:46.866Z,18.95
2019-05-03T13:20:18.114Z,73.17
2019-05-03T13:22:49.546Z,27.75
2019-05-03T13:25:20.587Z,11.90
2019-05-03T13:27:54.802Z,19.27
2019-05-03T13:30:29.627Z,17.70
2019-05-03T13:33:02.020Z,15.50
2019-05-03T13:35:35.014Z,11.20
2019-05-03T13:38:06.578Z,19.82
2019-05-03T13:40:37.367Z,23.22
2019-05-03T13:43:09.434Z,13.20
2019-05-03T13:45:40.180Z,11.33
2019-05-03T13:48:12.340Z,27.70
2019-05-03T13:50:44.638Z,20.63
2019-05-03T13:53:16.932Z,12.50
2019-05-03T13:55:49.090Z,31.75
2019-05-03T13:58:20.092Z,23.00
2019-05-03T14:00:51.221Z,19.35
2019-05-03T14:03:22.488Z,39.20
2019-05-03T14:08:25.659Z,16.00
2019-05-03T14:10:56.530Z,37.28
2019-05-03T14:13:27.557Z,19.70
2019-05-03T14:15:58.389Z,29.00
2019-05-03T14:18:29.453Z,19.42
2019-05-03T14:21:02.136Z,16.23
2019-05-03T14:23:34.793Z,14.07
2019-05-03T14:26:05.928Z,17.00
2019-05-03T14:28:36.680Z,15.08
2019-05-03T14:31:10.275Z,16.02
2019-05-03T14:33:41.206Z,34.18
2019-05-03T14:36:15.917Z,39.88
2019-05-03T14:38:47.061Z,36.10
2019-05-03T14:41:17.544Z,19.02
2019-05-03T14:43:48.642Z,16.65
2019-05-03T14:46:30.026Z,15.83
2019-05-03T14:48:54.861Z,23.80
2019-05-03T14:51:25.466Z,32.95
2019-05-03T14:53:57.167Z,26.10
2019-05-03T14:56:29.876Z,24.67
2019-05-03T15:06:35.278Z,30.57
2019-05-03T15:09:07.880Z,22.75
2019-05-03T15:11:38.433Z,22.85
2019-05-03T15:14:09.429Z,30.65
2019-05-03T15:16:40.471Z,22.00
2019-05-03T15:19:11.442Z,14.43
2019-05-03T15:21:42.904Z,18.82
2019-05-03T15:24:14.536Z,28.15
2019-05-03T15:26:45.693Z,31.20
2019-05-03T15:29:16.766Z,26.73
2019-05-03T15:31:48.070Z,16.57
2019-05-03T15:34:18.629Z,12.98
2019-05-03T15:36:49.547Z,16.95
2019-05-03T15:39:20.575Z,15.68
2019-05-03T15:41:54.284Z,14.87
2019-05-03T15:44:30.985Z,17.85
2019-05-03T15:47:09.870Z,18.50
2019-05-03T15:49:38.866Z,16.52
2019-05-03T15:52:10.194Z,11.70
2019-05-03T15:54:40.770Z,15.78
2019-05-03T15:57:11.276Z,18.30
2019-05-03T15:59:44.518Z,11.00
2019-05-03T16:02:15.603Z,13.55
2019-05-03T16:04:46.888Z,14.93
2019-05-03T16:07:18.057Z,11.88
2019-05-03T16:09:49.230Z,17.77
2019-05-03T16:12:20.176Z,15.93
2019-05-03T16:14:51.113Z,19.00
2019-05-03T16:17:24.513Z,17.73
2019-05-03T16:19:58.403Z,17.17
2019-05-03T16:22:28.900Z,16.30
2019-05-03T16:25:01.104Z,17.00
2019-05-03T16:27:34.759Z,21.90
2019-05-03T16:33:51.927Z,13.62
2019-05-03T16:36:23.801Z,15.70
2019-05-03T16:38:57.487Z,16.20
2019-05-03T16:41:28.475Z,10.48
2019-05-03T17:23:25.791Z,21.05
2019-05-03T17:25:58.255Z,15.05
2019-05-03T17:28:29.706Z,15.58
2019-05-03T17:31:00.329Z,16.93
2019-05-03T17:33:31.069Z,17.73
2019-05-03T17:36:01.983Z,14.80
2019-05-03T17:38:34.994Z,17.40
2019-05-03T17:41:06.871Z,14.05
2019-05-03T17:43:39.275Z,13.93
2019-05-03T17:46:11.964Z,12.50
2019-05-03T17:48:42.873Z,12.95
2019-05-03T17:51:35.148Z,13.83
2019-05-03T17:54:10.925Z,17.17
2019-05-03T17:56:44.523Z,12.18
2019-05-03T17:59:16.997Z,12.63
2019-05-03T18:02:06.906Z,12.15
2019-05-03T18:04:39.648Z,13.30
2019-05-03T18:07:15.114Z,13.48
2019-05-03T18:09:47.980Z,14.40
2019-05-03T18:12:18.920Z,14.50
2019-05-03T18:14:50.862Z,12.43
2019-05-03T18:17:22.329Z,13.08
2019-05-03T18:19:55.198Z,14.20
2019-05-03T18:22:26.978Z,14.00
2019-05-03T18:24:57.807Z,12.37
2019-05-03T18:27:29.558Z,15.90
2019-05-03T18:30:00.194Z,15.30
2019-05-03T18:32:34.444Z,13.65
2019-05-03T18:35:06.158Z,12.70
2019-05-03T18:37:37.410Z,11.70
2019-05-03T18:40:07.970Z,15.98
2019-05-03T18:42:44.815Z,13.43
2019-05-03T18:45:20.867Z,16.45
2019-05-03T18:47:51.801Z,13.05
2019-05-03T18:50:25.164Z,10.80
2019-05-03T18:52:56.338Z,12.75
2019-05-03T18:55:28.003Z,11.03
2019-05-03T18:58:00.064Z,13.80
2019-05-03T19:00:31.813Z,14.10
2019-05-03T19:03:02.956Z,11.93
2019-05-03T19:05:35.668Z,13.78
2019-05-03T19:08:15.310Z,10.50
2019-05-03T19:10:47.781Z,13.03
2019-05-03T19:13:26.678Z,11.85
2019-05-03T19:16:00.770Z,11.45
2019-05-03T19:18:35.119Z,10.90
2019-05-03T19:21:06.040Z,13.08
2019-05-03T19:23:36.462Z,10.13
2019-05-03T19:26:09.240Z,13.60
2019-05-03T19:28:40.081Z,11.33
2019-05-03T19:31:13.072Z,10.58
2019-05-03T19:33:45.660Z,11.38
2019-05-03T19:36:16.818Z,11.88
2019-05-03T19:38:48.236Z,11.28
2019-05-03T19:41:19.475Z,11.73
2019-05-03T19:43:50.414Z,9.85
2019-05-03T19:46:21.858Z,11.68
2019-05-03T19:48:54.589Z,11.90
2019-05-03T19:51:26.476Z,12.60
2019-05-03T19:53:58.599Z,14.40
2019-05-03T19:56:31.239Z,13.62
2019-05-03T19:59:04.750Z,14.35
2019-05-03T20:01:37.116Z,10.50
2019-05-03T20:04:27.908Z,12.10
2019-05-03T20:07:05.329Z,15.55
2019-05-03T20:09:36.747Z,11.00
2019-05-03T20:12:08.506Z,11.25
2019-05-03T20:14:40.392Z,9.75
2019-05-03T20:17:14.688Z,12.30
2019-05-03T20:19:45.828Z,14.28
2019-05-03T20:22:17.577Z,11.15
2019-05-03T20:24:48.723Z,13.60
2019-05-03T20:27:19.256Z,11.83
2019-05-03T20:29:50.187Z,11.97
2019-05-03T20:32:25.093Z,12.75
2019-05-03T20:34:55.792Z,10.78
2019-05-03T20:37:28.225Z,10.15
2019-05-03T20:40:05.277Z,9.08
2019-05-03T20:42:54.757Z,12.25
2019-05-03T20:45:36.075Z,11.70
2019-05-03T20:48:08.421Z,11.93
2019-05-03T20:50:41.406Z,10.93
2019-05-03T20:53:16.235Z,17.43
2019-05-03T20:55:47.592Z,12.70
2019-05-03T20:58:18.321Z,9.98
2019-05-03T21:00:50.996Z,10.65
2019-05-03T21:03:24.820Z,15.80
2019-05-03T21:05:58.507Z,12.43
2019-05-03T21:08:30.962Z,10.07
2019-05-03T21:11:05.423Z,13.62
2019-05-03T21:13:41.985Z,11.78
2019-05-03T21:16:15.261Z,12.50
2019-05-03T21:18:51.719Z,10.20
2019-05-03T21:21:28.262Z,12.73
2019-05-03T21:24:01.225Z,16.07
2019-05-03T21:26:32.084Z,12.30
2019-05-03T21:29:04.752Z,11.18
2019-05-03T21:31:35.592Z,12.20
2019-05-03T21:34:07.364Z,10.13
2019-05-03T21:36:39.134Z,13.48
2019-05-03T21:39:10.378Z,9.65
2019-05-03T21:41:41.108Z,10.40
2019-05-03T21:44:15.838Z,15.28
2019-05-03T21:46:48.314Z,10.00
2019-05-03T21:49:20.782Z,14.25
2019-05-03T21:51:53.639Z,14.33
2019-05-03T21:54:24.658Z,15.10
2019-05-03T21:56:57.976Z,11.80
2019-05-03T21:59:28.021Z,14.87
2019-05-03T22:02:00.997Z,13.48
2019-05-03T22:04:35.175Z,13.30
2019-05-03T22:07:06.967Z,15.73
2019-05-03T22:09:38.623Z,12.82
2019-05-03T22:12:10.593Z,14.50
2019-05-03T22:14:43.114Z,11.38
2019-05-03T22:17:35.799Z,11.28
2019-05-03T22:20:12.888Z,14.80
2019-05-03T22:22:45.332Z,18.35
2019-05-03T22:25:18.718Z,13.10
2019-05-03T22:27:50.982Z,11.43
2019-05-03T22:30:21.852Z,13.90
2019-05-03T22:32:54.777Z,19.02
2019-05-03T22:35:25.162Z,15.83
2019-05-03T22:37:56.149Z,14.87
2019-05-03T22:40:28.370Z,14.38
2019-05-03T22:43:01.646Z,17.25
2019-05-03T22:45:32.087Z,11.70
2019-05-03T22:48:05.267Z,16.32
2019-05-03T22:50:36.753Z,16.70
2019-05-03T22:53:07.583Z,11.63
2019-05-03T22:55:39.835Z,13.88
2019-05-03T22:58:10.782Z,12.43
2019-05-03T23:00:42.015Z,14.83
2019-05-03T23:03:14.500Z,11.85
2019-05-03T23:05:46.607Z,12.55
2019-05-03T23:08:17.382Z,15.45
2019-05-03T23:10:48.428Z,13.93
2019-05-03T23:13:20.181Z,15.00
2019-05-03T23:15:50.806Z,14.20
2019-05-03T23:18:21.964Z,13.85
2019-05-03T23:20:55.293Z,14.38
2019-05-03T23:23:45.554Z,13.93
2019-05-03T23:26:17.720Z,15.95
2019-05-03T23:28:50.281Z,14.10
2019-05-03T23:31:20.905Z,13.95
2019-05-03T23:33:54.466Z,16.17
2019-05-03T23:36:33.139Z,12.10
2019-05-03T23:38:59.514Z,13.15
2019-05-03T23:41:30.505Z,17.45
2019-05-03T23:44:04.759Z,13.25
2019-05-03T23:46:37.180Z,16.20
2019-05-03T23:49:08.148Z,15.95
2019-05-03T23:51:54.954Z,16.95
2019-05-03T23:54:25.113Z,17.45
2019-05-03T23:56:56.261Z,12.58
2019-05-03T23:59:27.189Z,16.95
